»·PEaware :: N516RP KBFL-KMHV

N516RP :: KBFL-KMHV

FLIGHT INFORMATION

Flight Status: Arrived
Operator: Privately registered:
United States
More flights under this callsign
Pilot: Paul P. (32265)
Aircraft: CESSNA 172 SKYHAWK
(C172)
More flights by this aircraft type
Origin: KBFL Meadows
United States
Destination: KMHV Mojave
United States
More flights between these airports :: More routes between these airports
Route: KBFL KMHV
File this flight plan on PilotEdge
Remarks: DIRECT FLIGHT
Altitude:
(Current/Filed)
7,500ft
Speed:
(Current/Filed)
112kts
Departed: 03-Nov-20 08:31 PM
Arrived: 03-Nov-20 09:11 PM
Distance/Time
Traveled:
50nm/0:40
Distance/Time
To Go:
Arrived

Flight Plot

Page will automatically refresh every two minutes.

Flight plan parsing failed; only flown route is shown


Map Options




Map Legend


Flown Route
Filed Route
Departure Airport
Arrival Airport
Navaid (VOR, NDB)
Fix

Horizontal Profiles

Position Reports

Time Latitude Longitude Heading Altitude Ground
Speed
03-Nov-20 20:18 35.427599 -119.044793 312 477ft 0kts
03-Nov-20 20:19 35.427599 -119.044793 312 477ft 0kts
03-Nov-20 20:20 35.427599 -119.044793 312 477ft 0kts
03-Nov-20 20:21 35.427599 -119.044793 312 477ft 0kts
03-Nov-20 20:22 35.427599 -119.044793 312 477ft 0kts
03-Nov-20 20:23 35.427599 -119.044793 312 477ft 0kts
03-Nov-20 20:24 35.427598 -119.044793 312 477ft 0kts
03-Nov-20 20:25 35.427599 -119.044793 312 477ft 0kts
03-Nov-20 20:26 35.427497 -119.044951 128 477ft 11kts
03-Nov-20 20:27 35.425738 -119.044686 230 472ft 0kts
03-Nov-20 20:28 35.425738 -119.044686 230 472ft 0kts
03-Nov-20 20:29 35.425923 -119.046724 315 478ft 24kts
03-Nov-20 20:30 35.440705 -119.063491 317 973ft 83kts
03-Nov-20 20:31 35.457768 -119.061441 60 1772ft 77kts
03-Nov-20 20:32 35.441427 -119.046919 157 2444ft 81kts
03-Nov-20 20:33 35.422000 -119.032123 133 3087ft 83kts
03-Nov-20 20:34 35.406166 -119.010463 130 3648ft 86kts
03-Nov-20 20:35 35.390533 -118.985928 126 3987ft 103kts
03-Nov-20 20:36 35.372933 -118.956560 125 4254ft 91kts
03-Nov-20 20:37 35.357764 -118.930230 121 4476ft 106kts
03-Nov-20 20:38 35.348365 -118.894717 106 4676ft 115kts
03-Nov-20 20:39 35.350528 -118.860321 76 5309ft 89kts
03-Nov-20 20:40 35.343800 -118.837472 116 5905ft 73kts
03-Nov-20 20:41 35.331194 -118.807047 117 5913ft 119kts
03-Nov-20 20:42 35.315555 -118.769134 117 5775ft 126kts
03-Nov-20 20:43 35.300215 -118.731833 117 5917ft 114kts
03-Nov-20 20:44 35.286826 -118.699305 117 6409ft 102kts
03-Nov-20 20:45 35.274454 -118.669274 117 6896ft 97kts
03-Nov-20 20:46 35.262117 -118.639347 117 7305ft 100kts
03-Nov-20 20:47 35.248335 -118.605959 117 7397ft 117kts
03-Nov-20 20:48 35.233349 -118.569652 117 7403ft 121kts
03-Nov-20 20:49 35.218129 -118.532839 117 7404ft 121kts
03-Nov-20 20:50 35.202756 -118.495696 117 7403ft 122kts
03-Nov-20 20:51 35.187359 -118.458554 117 7401ft 122kts
03-Nov-20 20:52 35.171979 -118.421464 117 7398ft 121kts
03-Nov-20 20:53 35.156608 -118.384450 117 7404ft 123kts
03-Nov-20 20:54 35.141352 -118.347078 114 7360ft 123kts
03-Nov-20 20:55 35.127441 -118.308589 111 6720ft 117kts
03-Nov-20 20:56 35.114328 -118.276704 124 6084ft 116kts
03-Nov-20 20:57 35.104439 -118.260354 127 5752ft 122kts
03-Nov-20 20:58 35.093415 -118.243678 129 5463ft 128kts
03-Nov-20 20:59 35.082367 -118.226649 127 4846ft 130kts
03-Nov-20 21:00 35.071868 -118.208614 123 3965ft 129kts
03-Nov-20 21:01 35.063478 -118.190743 115 3604ft 117kts
03-Nov-20 21:02 35.055049 -118.174166 127 3616ft 116kts
03-Nov-20 21:03 35.045123 -118.158157 130 3641ft 120kts
03-Nov-20 21:04 35.034324 -118.142627 131 3709ft 120kts
03-Nov-20 21:05 35.023516 -118.126675 129 3697ft 123kts
03-Nov-20 21:06 35.028953 -118.113749 355 3582ft 103kts
03-Nov-20 21:07 35.039528 -118.124499 314 2988ft 98kts
03-Nov-20 21:08 35.047850 -118.134650 314 2706ft 69kts
03-Nov-20 21:09 35.053502 -118.141456 314 2730ft 63kts
03-Nov-20 21:10 35.057588 -118.148118 273 2749ft 18kts
03-Nov-20 21:11 35.057623 -118.151478 270 2756ft 23kts
03-Nov-20 21:12 35.056947 -118.152665 179 2758ft 0kts

Navigation Log

Ident Type
Flight plan parsing failed, navigation log unavailable